KSSI/SSI METAR and TAF weather

Enter ICAO airport designator
Station Type Date Time Source
KSSI METAR 2020/07/12 00:53 UTC NOAA

KSSI 120053Z AUTO VRB06KT 10SM CLR 29/27 A2985 RMK AO2 SLP109 T02940267


Station Type Date Time Source
KSSI Decoded METAR 2020/07/12 00:53 UTC NOAA

BRUNSWICK MC KINNON AIRPORT , GA, United States (KSSI) 31-09N 081-23W 6M
Jul 11, 2020 - 08:53 PM EDT / 2020.07.12 0053 UTC
Wind: Variable at 7 MPH (6 KT):0
Visibility: 10 mile(s):0
Sky conditions: clear
Temperature: 84.9 F (29.4 C)
Dew Point: 80.1 F (26.7 C)
Relative Humidity: 85%
Pressure (altimeter): 29.85 in. Hg (1010 hPa)
ob: KSSI 120053Z AUTO VRB06KT 10SM CLR 29/27 A2985 RMK AO2 SLP109 T02940267
cycle: 1

Station Type Date Time Source
KSSI TAF 2020/07/11 18:22 UTC NOAA

TAF KSSI 111720Z 1118/1218 27005KT P6SM VCTS SCT050CB BKN080 BKN250
FM120300 24005KT P6SM SCT040 SCT080 BKN250
FM120600 00000KT P6SM SCT250

Example: see airport list